createdAt,value
2018-12-06T00:00:56.420Z,73.50
2018-12-06T00:03:29.402Z,73.73
2018-12-06T00:06:00.915Z,74.01
2018-12-06T00:08:34.149Z,73.85
2018-12-06T00:11:07.050Z,73.27
2018-12-06T00:13:38.469Z,72.52
2018-12-06T00:16:11.852Z,72.91
2018-12-06T00:18:43.483Z,72.22
2018-12-06T00:21:16.719Z,71.90
2018-12-06T00:23:50.212Z,71.48
2018-12-06T00:26:21.539Z,70.53
2018-12-06T00:28:56.525Z,71.25
2018-12-06T00:31:31.739Z,71.44
2018-12-06T00:34:03.023Z,71.50
2018-12-06T00:36:33.943Z,70.93
2018-12-06T00:39:06.484Z,71.28
2018-12-06T00:41:37.563Z,71.16
2018-12-06T00:44:08.636Z,70.68
2018-12-06T00:46:42.186Z,70.51
2018-12-06T00:49:16.052Z,70.22
2018-12-06T00:51:47.402Z,70.70
2018-12-06T00:54:18.548Z,70.72
2018-12-06T00:56:51.966Z,70.37
2018-12-06T00:59:27.404Z,70.10
2018-12-06T01:02:00.921Z,70.71
2018-12-06T01:04:31.906Z,70.76
2018-12-06T01:07:05.296Z,71.10
2018-12-06T01:09:38.162Z,71.14
2018-12-06T01:12:11.645Z,71.36
2018-12-06T01:14:45.818Z,71.51
2018-12-06T01:17:20.853Z,71.23
2018-12-06T01:19:55.368Z,70.55
2018-12-06T01:22:30.107Z,70.65
2018-12-06T01:25:04.923Z,70.39
2018-12-06T01:27:37.860Z,69.28
2018-12-06T01:30:10.814Z,68.95
2018-12-06T01:32:42.266Z,68.89
2018-12-06T01:35:15.364Z,68.79
2018-12-06T01:37:48.337Z,69.16
2018-12-06T01:40:19.750Z,69.16
2018-12-06T01:42:53.162Z,69.36
2018-12-06T01:45:28.700Z,69.28
2018-12-06T01:48:01.684Z,69.50
2018-12-06T01:50:37.316Z,70.41
2018-12-06T01:53:08.637Z,69.88
2018-12-06T01:55:42.086Z,70.48
2018-12-06T01:58:13.374Z,69.92
2018-12-06T02:00:46.784Z,69.78
2018-12-06T02:03:18.068Z,69.85
2018-12-06T02:05:53.139Z,69.50
2018-12-06T02:08:30.038Z,69.09
2018-12-06T02:11:07.795Z,69.67
2018-12-06T02:13:42.579Z,69.56
2018-12-06T02:16:17.461Z,69.45
2018-12-06T02:18:50.485Z,69.07
2018-12-06T02:21:21.725Z,69.44
2018-12-06T02:23:57.370Z,68.37
2018-12-06T02:26:30.530Z,69.07
2018-12-06T02:29:02.768Z,68.74
2018-12-06T02:31:36.233Z,68.63
2018-12-06T02:34:09.866Z,68.75
2018-12-06T02:36:41.313Z,68.81
2018-12-06T02:39:14.693Z,68.52
2018-12-06T02:41:46.052Z,69.13
2018-12-06T02:44:17.437Z,69.23
2018-12-06T02:46:50.788Z,69.32
2018-12-06T02:49:22.118Z,69.30
2018-12-06T02:51:53.284Z,69.81
2018-12-06T02:54:26.567Z,69.84
2018-12-06T02:56:57.837Z,70.00
2018-12-06T02:59:28.947Z,70.28
2018-12-06T03:02:02.220Z,69.54
2018-12-06T03:04:33.544Z,70.06
2018-12-06T03:07:06.837Z,69.58
2018-12-06T03:09:39.789Z,69.71
2018-12-06T03:12:14.504Z,69.81
2018-12-06T03:14:47.591Z,70.56
2018-12-06T03:17:20.591Z,70.47
2018-12-06T03:19:51.950Z,70.77
2018-12-06T03:22:23.137Z,70.47
2018-12-06T03:25:00.072Z,71.04
2018-12-06T03:27:31.287Z,71.19
2018-12-06T03:30:04.905Z,71.21
2018-12-06T03:32:36.241Z,70.87
2018-12-06T03:35:09.574Z,71.23
2018-12-06T03:37:43.292Z,70.76
2018-12-06T03:40:14.685Z,71.25
2018-12-06T03:42:47.982Z,70.91
2018-12-06T03:45:24.952Z,71.31
2018-12-06T03:47:56.329Z,71.12
2018-12-06T03:50:29.496Z,71.43
2018-12-06T03:53:02.818Z,71.42
2018-12-06T03:55:38.420Z,71.21
2018-12-06T03:58:11.941Z,72.03
2018-12-06T04:00:43.526Z,71.61
2018-12-06T04:03:16.441Z,71.35
2018-12-06T04:05:47.815Z,71.14
2018-12-06T04:08:21.183Z,70.83
2018-12-06T04:10:58.029Z,71.53
2018-12-06T04:13:31.467Z,71.82
2018-12-06T04:16:06.601Z,71.34
2018-12-06T04:18:38.984Z,71.39
2018-12-06T04:21:10.913Z,71.65
2018-12-06T04:23:46.975Z,72.04
2018-12-06T04:26:20.242Z,72.41
2018-12-06T04:28:51.668Z,72.31
2018-12-06T04:31:25.083Z,71.76
2018-12-06T04:33:56.622Z,72.28
2018-12-06T04:36:31.763Z,72.75
2018-12-06T04:39:05.655Z,72.46
2018-12-06T04:41:37.165Z,71.77
2018-12-06T04:44:12.259Z,72.80
2018-12-06T04:46:45.219Z,71.97
2018-12-06T04:49:16.656Z,72.79
2018-12-06T04:51:49.940Z,72.57
2018-12-06T04:54:21.562Z,72.75
2018-12-06T04:56:54.692Z,72.77
2018-12-06T04:59:27.817Z,72.47
2018-12-06T05:02:01.616Z,72.99
2018-12-06T05:04:35.460Z,73.43
2018-12-06T05:07:09.228Z,73.38
2018-12-06T05:09:42.862Z,73.70
2018-12-06T05:12:15.919Z,73.26
2018-12-06T05:14:47.320Z,73.44
2018-12-06T05:17:20.975Z,73.37
2018-12-06T05:19:52.295Z,74.14
2018-12-06T05:22:29.774Z,73.67
2018-12-06T05:25:03.172Z,74.34
2018-12-06T05:27:34.465Z,74.76
2018-12-06T05:30:08.494Z,74.71
2018-12-06T05:32:40.099Z,75.78
2018-12-06T05:35:13.627Z,75.30
2018-12-06T05:37:44.824Z,75.45
2018-12-06T05:40:18.176Z,74.88
2018-12-06T05:42:51.713Z,75.46
2018-12-06T05:45:24.721Z,75.82
2018-12-06T05:48:01.680Z,75.68
2018-12-06T05:50:41.094Z,76.00
2018-12-06T05:53:14.698Z,75.73
2018-12-06T05:55:48.472Z,75.83
2018-12-06T05:58:21.552Z,75.39
2018-12-06T06:00:52.769Z,75.33
2018-12-06T06:03:26.178Z,76.03
2018-12-06T06:06:02.355Z,75.52
2018-12-06T06:08:32.956Z,75.86
2018-12-06T06:11:06.053Z,75.82
2018-12-06T06:13:39.145Z,75.87
2018-12-06T06:16:09.788Z,76.64
2018-12-06T06:18:42.920Z,76.46
2018-12-06T06:24:32.965Z,76.74
2018-12-06T06:27:08.172Z,77.10
2018-12-06T06:29:41.386Z,76.93
2018-12-06T06:32:22.591Z,77.11
2018-12-06T06:34:56.266Z,77.52
2018-12-06T06:37:29.908Z,77.26
2018-12-06T06:40:07.715Z,77.68
2018-12-06T06:42:40.747Z,77.43
2018-12-06T06:45:16.499Z,77.39
2018-12-06T06:47:50.281Z,78.02
2018-12-06T06:50:25.204Z,78.04
2018-12-06T06:52:56.704Z,77.73
2018-12-06T06:55:30.406Z,77.77
2018-12-06T06:58:01.925Z,78.09
2018-12-06T07:00:37.263Z,78.04
2018-12-06T07:03:10.941Z,78.82
2018-12-06T07:05:47.954Z,78.88
2018-12-06T07:08:19.995Z,79.61
2018-12-06T07:10:53.873Z,79.34
2018-12-06T07:13:26.999Z,79.71
2018-12-06T07:16:07.004Z,79.97
2018-12-06T07:18:41.173Z,79.66
2018-12-06T07:21:14.990Z,79.92
2018-12-06T07:23:48.655Z,80.09
2018-12-06T07:26:20.626Z,80.63
2018-12-06T07:28:52.096Z,80.69
2018-12-06T07:31:27.870Z,80.68
2018-12-06T07:34:01.185Z,80.57
2018-12-06T07:36:36.009Z,80.79
2018-12-06T07:39:10.849Z,80.99
2018-12-06T07:41:43.938Z,81.65
2018-12-06T07:44:17.514Z,81.46
2018-12-06T07:46:49.018Z,81.70
2018-12-06T07:49:22.416Z,81.69
2018-12-06T07:51:53.757Z,82.01
2018-12-06T07:54:27.231Z,82.01
2018-12-06T07:57:00.949Z,81.87
2018-12-06T07:59:36.941Z,81.78
2018-12-06T08:02:10.541Z,82.20
2018-12-06T08:04:44.470Z,81.58
2018-12-06T08:07:16.087Z,81.16
2018-12-06T08:09:53.710Z,80.72
2018-12-06T08:12:29.106Z,81.12
2018-12-06T08:15:03.081Z,80.99
2018-12-06T08:17:37.356Z,80.18
2018-12-06T08:20:10.878Z,79.96
2018-12-06T08:22:42.678Z,79.68
2018-12-06T08:25:16.542Z,79.62
2018-12-06T08:27:48.049Z,78.86
2018-12-06T08:30:23.524Z,78.43
2018-12-06T08:32:59.374Z,77.87
2018-12-06T08:35:32.424Z,77.06
2018-12-06T08:38:05.493Z,76.83
2018-12-06T08:40:39.116Z,76.96
2018-12-06T08:43:14.837Z,76.99
2018-12-06T08:45:55.125Z,77.17
2018-12-06T08:48:34.641Z,77.09
2018-12-06T08:51:14.374Z,76.84
2018-12-06T08:53:51.863Z,76.59
2018-12-06T08:56:24.885Z,76.68
2018-12-06T08:58:57.831Z,77.29
2018-12-06T09:01:29.967Z,77.54
2018-12-06T09:04:01.463Z,77.22
2018-12-06T09:06:35.601Z,77.34
2018-12-06T09:09:09.128Z,77.23
2018-12-06T09:11:43.075Z,77.51
2018-12-06T09:14:14.159Z,78.05
2018-12-06T09:16:47.504Z,77.84
2018-12-06T09:19:21.388Z,78.64
2018-12-06T09:21:57.612Z,78.29
2018-12-06T09:24:31.115Z,78.64
2018-12-06T09:27:04.865Z,78.51
2018-12-06T09:29:39.005Z,78.54
2018-12-06T09:32:10.433Z,78.64
2018-12-06T09:34:42.286Z,77.78
2018-12-06T09:37:13.081Z,76.52
2018-12-06T09:39:57.620Z,76.06
2018-12-06T09:42:34.560Z,76.57
2018-12-06T09:45:07.127Z,76.65
2018-12-06T09:47:40.712Z,77.29
2018-12-06T09:50:12.008Z,77.79
2018-12-06T09:52:45.552Z,77.89
2018-12-06T09:55:19.596Z,78.48
2018-12-06T09:57:55.964Z,78.66
2018-12-06T10:00:36.575Z,78.51
2018-12-06T10:03:10.533Z,78.01
2018-12-06T10:05:45.524Z,78.19
2018-12-06T10:08:17.427Z,78.39
2018-12-06T10:10:49.182Z,78.16
2018-12-06T10:13:20.065Z,78.75
2018-12-06T10:15:53.738Z,78.20
2018-12-06T10:18:27.632Z,78.45
2018-12-06T10:21:01.382Z,79.30
2018-12-06T10:23:36.047Z,80.59
2018-12-06T10:26:07.648Z,81.88
2018-12-06T10:28:41.652Z,82.66
2018-12-06T10:31:21.930Z,84.33
2018-12-06T10:33:55.828Z,84.67
2018-12-06T10:36:27.413Z,85.83
2018-12-06T10:38:59.519Z,86.42
2018-12-06T10:41:31.802Z,87.15
2018-12-06T10:44:06.350Z,87.08
2018-12-06T10:46:39.968Z,88.05
2018-12-06T10:49:13.795Z,88.18
2018-12-06T10:51:50.117Z,87.82
2018-12-06T10:54:21.939Z,87.91
2018-12-06T10:56:58.135Z,87.94
2018-12-06T10:59:31.671Z,87.66
2018-12-06T11:02:03.841Z,88.18
2018-12-06T11:04:36.973Z,88.20
2018-12-06T11:07:10.966Z,87.86
2018-12-06T11:09:45.909Z,87.51
2018-12-06T11:12:19.556Z,86.73
2018-12-06T11:14:50.943Z,88.06
2018-12-06T11:17:24.141Z,88.26
2018-12-06T11:19:55.611Z,87.68
2018-12-06T11:22:27.022Z,88.02
2018-12-06T11:25:00.023Z,86.87
2018-12-06T11:27:34.069Z,87.12
2018-12-06T11:32:36.893Z,86.44
2018-12-06T11:35:10.344Z,85.50
2018-12-06T11:37:45.311Z,84.84
2018-12-06T11:40:21.390Z,84.07
2018-12-06T11:42:56.349Z,83.44
2018-12-06T11:45:30.315Z,83.37
2018-12-06T11:48:08.511Z,82.34
2018-12-06T11:50:44.274Z,82.65
2018-12-06T11:53:15.650Z,82.46
2018-12-06T11:55:49.724Z,81.92
2018-12-06T11:58:23.023Z,81.32
2018-12-06T12:00:58.539Z,81.92
2018-12-06T12:03:31.979Z,82.65
2018-12-06T12:06:03.175Z,81.80
2018-12-06T12:08:38.379Z,82.28
2018-12-06T12:11:10.344Z,81.45
2018-12-06T12:13:42.125Z,81.11
2018-12-06T12:16:16.954Z,80.28
2018-12-06T12:18:50.141Z,79.74
2018-12-06T12:21:25.360Z,80.81
2018-12-06T12:23:59.179Z,79.50
2018-12-06T12:26:33.582Z,80.07
2018-12-06T12:29:07.076Z,79.69
2018-12-06T12:31:41.876Z,78.69
2018-12-06T12:34:16.596Z,79.34
2018-12-06T12:36:48.497Z,78.79
2018-12-06T12:39:21.584Z,78.21
2018-12-06T12:41:55.108Z,78.74
2018-12-06T12:44:26.770Z,78.18
2018-12-06T12:47:00.114Z,77.86
2018-12-06T12:49:31.601Z,78.83
2018-12-06T12:52:04.909Z,78.83
2018-12-06T12:54:38.040Z,79.20
2018-12-06T12:57:09.180Z,79.34
2018-12-06T12:59:42.426Z,78.96
2018-12-06T13:02:16.090Z,78.90
2018-12-06T13:04:52.990Z,79.50
2018-12-06T13:07:24.698Z,79.26
2018-12-06T13:09:58.983Z,79.23
2018-12-06T13:12:34.296Z,79.17
2018-12-06T13:15:09.313Z,79.56
2018-12-06T13:17:44.758Z,79.31
2018-12-06T13:20:15.860Z,79.10
2018-12-06T13:22:48.998Z,78.93
2018-12-06T13:28:15.904Z,79.60
2018-12-06T13:30:49.477Z,79.07
2018-12-06T13:33:33.127Z,79.98
2018-12-06T13:36:17.157Z,79.77
2018-12-06T13:38:52.188Z,79.65
2018-12-06T13:41:27.097Z,80.07
2018-12-06T13:44:00.197Z,80.21
2018-12-06T13:46:37.273Z,80.53
2018-12-06T13:49:09.744Z,80.79
2018-12-06T13:51:41.232Z,80.92
2018-12-06T13:54:14.357Z,80.84
2018-12-06T13:56:50.602Z,81.56
2018-12-06T13:59:31.825Z,81.74
2018-12-06T14:02:08.130Z,81.48
2018-12-06T14:04:39.216Z,82.45
2018-12-06T14:07:10.496Z,82.39
2018-12-06T14:09:43.713Z,82.53
2018-12-06T14:12:15.155Z,82.58
2018-12-06T14:14:50.050Z,83.21
2018-12-06T14:17:27.494Z,83.07
2018-12-06T14:20:00.530Z,83.31
2018-12-06T14:22:32.075Z,83.45
2018-12-06T14:25:05.690Z,83.91
2018-12-06T14:27:42.777Z,84.19
2018-12-06T14:30:18.645Z,84.33
2018-12-06T14:32:50.172Z,84.65
2018-12-06T14:35:23.396Z,84.28
2018-12-06T14:37:54.917Z,84.97
2018-12-06T14:40:28.206Z,84.28
2018-12-06T14:42:59.876Z,84.69
2018-12-06T14:45:33.503Z,84.30
2018-12-06T14:48:09.181Z,84.27
2018-12-06T14:50:42.694Z,84.65
2018-12-06T14:53:17.834Z,85.11
2018-12-06T14:55:51.919Z,85.50
2018-12-06T14:58:23.344Z,86.00
2018-12-06T15:00:54.334Z,85.91
2018-12-06T15:03:25.451Z,85.61
2018-12-06T15:05:58.498Z,85.52
2018-12-06T15:08:33.528Z,85.11
2018-12-06T15:11:06.502Z,85.38
2018-12-06T15:13:39.619Z,85.55
2018-12-06T15:16:11.400Z,85.70
2018-12-06T15:18:42.837Z,85.23
2018-12-06T15:21:16.898Z,85.15
2018-12-06T15:23:50.168Z,85.66
2018-12-06T15:26:22.558Z,85.21
2018-12-06T15:28:55.921Z,85.94
2018-12-06T15:31:27.227Z,85.79
2018-12-06T15:34:01.028Z,86.00
2018-12-06T15:36:32.315Z,86.25
2018-12-06T15:39:06.654Z,86.24
2018-12-06T15:41:39.522Z,85.88
2018-12-06T15:44:18.909Z,86.36
2018-12-06T15:47:01.292Z,86.46
2018-12-06T15:49:38.167Z,86.35
2018-12-06T15:52:11.842Z,86.49
2018-12-06T15:54:47.316Z,86.77
2018-12-06T15:57:20.501Z,86.97
2018-12-06T15:59:53.165Z,86.39
2018-12-06T16:02:26.483Z,86.74
2018-12-06T16:05:06.577Z,86.61
2018-12-06T16:07:41.301Z,86.98
2018-12-06T16:10:15.742Z,86.63
2018-12-06T16:12:49.194Z,86.87
2018-12-06T16:15:22.759Z,86.66
2018-12-06T16:17:56.909Z,86.77
2018-12-06T16:20:30.196Z,86.44
2018-12-06T16:23:08.396Z,86.50
2018-12-06T16:25:42.390Z,86.62
2018-12-06T16:28:13.584Z,86.69
2018-12-06T16:30:46.943Z,86.65
2018-12-06T16:33:19.997Z,87.44
2018-12-06T16:35:51.359Z,86.82
2018-12-06T16:38:26.802Z,87.21
2018-12-06T16:40:59.876Z,87.05
2018-12-06T16:43:37.717Z,87.53
2018-12-06T16:46:11.357Z,87.50
2018-12-06T16:48:47.976Z,87.84
2018-12-06T16:51:19.850Z,87.59
2018-12-06T16:53:53.097Z,87.35
2018-12-06T16:59:08.669Z,87.56
2018-12-06T17:01:43.744Z,87.62
2018-12-06T17:04:18.689Z,87.37
2018-12-06T17:06:54.065Z,87.44
2018-12-06T17:09:34.045Z,87.80
2018-12-06T17:12:08.557Z,87.63
2018-12-06T17:14:45.443Z,87.93
2018-12-06T17:17:20.604Z,87.10
2018-12-06T17:19:55.456Z,87.52
2018-12-06T17:22:30.319Z,87.29
2018-12-06T17:25:05.464Z,87.09
2018-12-06T17:27:44.893Z,87.24
2018-12-06T17:30:20.249Z,87.31
2018-12-06T17:32:55.417Z,86.61
2018-12-06T17:35:32.275Z,86.43
2018-12-06T17:38:07.397Z,86.04
2018-12-06T17:40:41.243Z,86.17
2018-12-06T17:43:15.733Z,86.41
2018-12-06T17:45:50.673Z,86.57
2018-12-06T17:48:27.728Z,86.73
2018-12-06T17:51:04.583Z,86.92
2018-12-06T17:53:38.561Z,86.71
2018-12-06T17:56:13.477Z,86.86
2018-12-06T17:58:52.977Z,86.57
2018-12-06T18:01:28.419Z,86.87
2018-12-06T18:04:03.256Z,86.73
2018-12-06T18:06:37.090Z,86.85
2018-12-06T18:09:12.555Z,86.69
2018-12-06T18:11:43.714Z,86.72
2018-12-06T18:14:19.181Z,87.03
2018-12-06T18:17:02.528Z,87.04
2018-12-06T18:19:40.734Z,87.06
2018-12-06T18:22:20.191Z,86.71
2018-12-06T18:24:55.687Z,87.24
2018-12-06T18:27:27.506Z,87.15
2018-12-06T18:30:02.428Z,86.32
2018-12-06T18:32:37.396Z,85.92
2018-12-06T18:35:15.915Z,85.39
2018-12-06T18:37:51.285Z,85.29
2018-12-06T18:40:22.866Z,85.04
2018-12-06T18:42:58.133Z,84.90
2018-12-06T18:45:32.994Z,84.23
2018-12-06T18:51:10.605Z,83.59
2018-12-06T18:53:46.123Z,84.04
2018-12-06T18:56:21.303Z,83.42
2018-12-06T18:58:52.520Z,83.78
2018-12-06T19:01:28.042Z,83.42
2018-12-06T19:04:03.563Z,83.02
2018-12-06T19:06:40.826Z,83.23
2018-12-06T19:09:16.780Z,82.97
2018-12-06T19:11:52.766Z,82.79
2018-12-06T19:14:30.798Z,82.31
2018-12-06T19:17:02.806Z,82.43
2018-12-06T19:19:40.177Z,82.51
2018-12-06T19:25:14.484Z,83.03
2018-12-06T19:28:00.651Z,82.62
2018-12-06T19:30:48.402Z,82.47
2018-12-06T19:33:24.589Z,81.36
2018-12-06T19:38:57.082Z,81.75
2018-12-06T19:41:36.741Z,81.75
2018-12-06T19:44:16.196Z,82.02
2018-12-06T19:46:57.641Z,82.02
2018-12-06T19:49:53.826Z,81.83
2018-12-06T19:52:43.441Z,81.80
2018-12-06T19:55:19.420Z,81.59
2018-12-06T19:57:53.141Z,81.26
2018-12-06T20:00:34.462Z,80.92
2018-12-06T20:03:09.971Z,80.82
2018-12-06T20:05:42.278Z,81.19
2018-12-06T20:08:13.126Z,80.82
2018-12-06T20:10:49.591Z,80.52
2018-12-06T20:13:24.783Z,80.15
2018-12-06T20:15:58.842Z,80.50
2018-12-06T20:18:33.577Z,80.36
2018-12-06T20:21:09.880Z,80.33
2018-12-06T20:23:42.139Z,80.85
2018-12-06T20:26:13.019Z,80.47
2018-12-06T20:28:46.176Z,80.90
2018-12-06T20:31:17.136Z,81.25
2018-12-06T20:33:55.636Z,80.89
2018-12-06T20:36:32.298Z,80.81
2018-12-06T20:39:12.297Z,81.13
2018-12-06T20:41:54.009Z,81.21
2018-12-06T20:44:34.093Z,80.75
2018-12-06T20:47:16.025Z,81.33
2018-12-06T20:49:56.068Z,81.07
2018-12-06T20:52:31.611Z,81.11
2018-12-06T20:55:11.990Z,81.56
2018-12-06T20:57:51.490Z,81.33
2018-12-06T21:00:31.414Z,81.53
2018-12-06T21:03:09.051Z,81.68
2018-12-06T21:05:49.249Z,81.32
2018-12-06T21:08:20.125Z,81.50
2018-12-06T21:10:55.406Z,81.43
2018-12-06T21:13:30.398Z,80.98
2018-12-06T21:16:05.377Z,80.54
2018-12-06T21:18:42.457Z,80.85
2018-12-06T21:21:20.154Z,80.82
2018-12-06T21:23:53.187Z,80.72
2018-12-06T21:26:28.046Z,80.59
2018-12-06T21:29:03.968Z,79.73
2018-12-06T21:31:37.658Z,79.64
2018-12-06T21:34:17.172Z,80.05
2018-12-06T21:36:54.536Z,79.58
2018-12-06T21:39:31.396Z,79.68
2018-12-06T21:42:08.267Z,79.71
2018-12-06T21:44:42.043Z,79.76
2018-12-06T21:47:24.608Z,79.72
2018-12-06T21:49:56.128Z,79.91
2018-12-06T21:52:28.263Z,80.10
2018-12-06T21:54:58.981Z,80.56
2018-12-06T21:57:32.346Z,80.34
2018-12-06T22:00:05.932Z,80.52
2018-12-06T22:02:39.208Z,80.69
2018-12-06T22:05:14.881Z,80.48
2018-12-06T22:07:47.874Z,80.42
2018-12-06T22:10:19.271Z,80.71
2018-12-06T22:12:56.758Z,80.18
2018-12-06T22:15:31.869Z,80.38
2018-12-06T22:18:04.823Z,80.85
2018-12-06T22:20:37.682Z,81.05
2018-12-06T22:23:12.775Z,81.07
2018-12-06T22:25:43.933Z,81.03
2018-12-06T22:28:17.269Z,80.89
2018-12-06T22:30:48.597Z,81.43
2018-12-06T22:33:21.781Z,81.27
2018-12-06T22:35:55.475Z,81.77
2018-12-06T22:38:33.874Z,82.38
2018-12-06T22:41:02.618Z,82.00
2018-12-06T22:43:37.965Z,82.70
2018-12-06T22:46:11.294Z,82.82
2018-12-06T22:48:44.329Z,83.12
2018-12-06T22:51:14.993Z,83.76
2018-12-06T22:53:48.280Z,83.98
2018-12-06T22:56:21.221Z,83.64
2018-12-06T22:58:54.017Z,83.79
2018-12-06T23:01:32.634Z,83.85
2018-12-06T23:04:08.251Z,83.92
2018-12-06T23:06:42.974Z,83.84
2018-12-06T23:09:17.776Z,84.55
2018-12-06T23:11:52.864Z,84.43
2018-12-06T23:14:27.416Z,84.39
2018-12-06T23:17:01.427Z,84.79
2018-12-06T23:22:37.004Z,84.35
2018-12-06T23:25:12.584Z,84.49
2018-12-06T23:27:47.864Z,84.42
2018-12-06T23:30:22.324Z,84.29
2018-12-06T23:33:01.613Z,84.11
2018-12-06T23:35:42.561Z,84.00
2018-12-06T23:38:17.676Z,84.12
2018-12-06T23:45:56.947Z,84.48
2018-12-06T23:48:31.878Z,84.36
2018-12-06T23:51:14.584Z,84.42
2018-12-06T23:53:49.969Z,84.26
2018-12-06T23:56:27.132Z,84.18
2018-12-06T23:59:02.102Z,84.30
